sensor_id;sensor_type;location;lat;lon;timestamp;temperature;humidity
3466;DHT22;1747;48.884;9.160;2022-07-17T00:01:53;17.00;95.00
3466;DHT22;1747;48.884;9.160;2022-07-17T00:04:19;16.90;95.40
3466;DHT22;1747;48.884;9.160;2022-07-17T00:06:46;16.70;96.50
3466;DHT22;1747;48.884;9.160;2022-07-17T00:09:13;16.60;96.90
3466;DHT22;1747;48.884;9.160;2022-07-17T00:11:40;16.50;97.50
3466;DHT22;1747;48.884;9.160;2022-07-17T00:14:07;16.40;98.00
3466;DHT22;1747;48.884;9.160;2022-07-17T00:16:35;16.20;99.20
3466;DHT22;1747;48.884;9.160;2022-07-17T00:19:02;16.10;99.70
3466;DHT22;1747;48.884;9.160;2022-07-17T00:21:29;16.10;99.80
3466;DHT22;1747;48.884;9.160;2022-07-17T00:23:56;16.10;99.80
3466;DHT22;1747;48.884;9.160;2022-07-17T00:26:22;16.20;99.70
3466;DHT22;1747;48.884;9.160;2022-07-17T00:28:49;16.20;99.50
3466;DHT22;1747;48.884;9.160;2022-07-17T00:31:16;16.30;99.40
3466;DHT22;1747;48.884;9.160;2022-07-17T00:33:44;16.30;99.20
3466;DHT22;1747;48.884;9.160;2022-07-17T00:36:11;16.20;99.00
3466;DHT22;1747;48.884;9.160;2022-07-17T00:38:38;16.30;99.20
3466;DHT22;1747;48.884;9.160;2022-07-17T00:41:05;16.30;99.50
3466;DHT22;1747;48.884;9.160;2022-07-17T00:43:32;16.20;99.80
3466;DHT22;1747;48.884;9.160;2022-07-17T00:46:00;16.10;99.80
3466;DHT22;1747;48.884;9.160;2022-07-17T00:48:27;16.00;99.90
3466;DHT22;1747;48.884;9.160;2022-07-17T00:50:56;16.00;99.90
3466;DHT22;1747;48.884;9.160;2022-07-17T00:53:23;15.90;99.90
3466;DHT22;1747;48.884;9.160;2022-07-17T00:55:50;15.80;99.90
3466;DHT22;1747;48.884;9.160;2022-07-17T00:58:21;15.80;99.90
3466;DHT22;1747;48.884;9.160;2022-07-17T01:00:49;15.80;99.90
3466;DHT22;1747;48.884;9.160;2022-07-17T01:03:18;15.90;99.90
3466;DHT22;1747;48.884;9.160;2022-07-17T01:05:45;16.00;99.90
3466;DHT22;1747;48.884;9.160;2022-07-17T01:08:14;16.00;99.90
3466;DHT22;1747;48.884;9.160;2022-07-17T01:10:41;16.10;99.70
3466;DHT22;1747;48.884;9.160;2022-07-17T01:13:08;16.10;99.10
3466;DHT22;1747;48.884;9.160;2022-07-17T01:15:36;16.10;99.50
3466;DHT22;1747;48.884;9.160;2022-07-17T01:18:05;16.00;99.70
3466;DHT22;1747;48.884;9.160;2022-07-17T01:20:33;16.00;99.50
3466;DHT22;1747;48.884;9.160;2022-07-17T01:23:02;16.10;99.80
3466;DHT22;1747;48.884;9.160;2022-07-17T01:25:28;16.00;99.90
3466;DHT22;1747;48.884;9.160;2022-07-17T01:27:55;16.00;99.50
3466;DHT22;1747;48.884;9.160;2022-07-17T01:30:23;16.00;99.60
3466;DHT22;1747;48.884;9.160;2022-07-17T01:32:50;16.00;99.80
3466;DHT22;1747;48.884;9.160;2022-07-17T01:35:17;16.00;99.90
3466;DHT22;1747;48.884;9.160;2022-07-17T01:37:46;16.00;99.90
3466;DHT22;1747;48.884;9.160;2022-07-17T01:40:16;16.00;99.90
3466;DHT22;1747;48.884;9.160;2022-07-17T01:42:45;15.90;99.90
3466;DHT22;1747;48.884;9.160;2022-07-17T01:45:14;15.80;99.90
3466;DHT22;1747;48.884;9.160;2022-07-17T01:47:41;15.60;99.90
3466;DHT22;1747;48.884;9.160;2022-07-17T01:50:09;15.60;99.40
3466;DHT22;1747;48.884;9.160;2022-07-17T01:52:38;15.60;99.70
3466;DHT22;1747;48.884;9.160;2022-07-17T01:55:06;15.60;99.70
3466;DHT22;1747;48.884;9.160;2022-07-17T01:57:35;15.60;99.90
3466;DHT22;1747;48.884;9.160;2022-07-17T02:00:04;15.50;99.90
3466;DHT22;1747;48.884;9.160;2022-07-17T02:02:32;15.50;99.90
3466;DHT22;1747;48.884;9.160;2022-07-17T02:04:59;15.40;99.90
3466;DHT22;1747;48.884;9.160;2022-07-17T02:07:26;15.30;99.90
3466;DHT22;1747;48.884;9.160;2022-07-17T02:09:52;15.20;99.90
3466;DHT22;1747;48.884;9.160;2022-07-17T02:12:19;15.20;99.90
3466;DHT22;1747;48.884;9.160;2022-07-17T02:14:48;15.20;99.90
3466;DHT22;1747;48.884;9.160;2022-07-17T02:17:14;15.20;99.90
3466;DHT22;1747;48.884;9.160;2022-07-17T02:19:41;15.10;99.90
3466;DHT22;1747;48.884;9.160;2022-07-17T02:22:08;15.00;99.90
3466;DHT22;1747;48.884;9.160;2022-07-17T02:24:35;14.80;99.90
3466;DHT22;1747;48.884;9.160;2022-07-17T02:27:02;14.70;99.90
3466;DHT22;1747;48.884;9.160;2022-07-17T02:29:28;14.50;99.90
3466;DHT22;1747;48.884;9.160;2022-07-17T02:31:57;14.50;99.90
3466;DHT22;1747;48.884;9.160;2022-07-17T02:34:23;14.50;99.90
3466;DHT22;1747;48.884;9.160;2022-07-17T02:36:50;14.60;99.90
3466;DHT22;1747;48.884;9.160;2022-07-17T02:39:17;14.60;99.90
3466;DHT22;1747;48.884;9.160;2022-07-17T02:41:44;14.60;99.90
3466;DHT22;1747;48.884;9.160;2022-07-17T02:44:11;14.50;99.90
3466;DHT22;1747;48.884;9.160;2022-07-17T02:46:38;14.40;99.90
3466;DHT22;1747;48.884;9.160;2022-07-17T02:49:06;14.40;99.90
3466;DHT22;1747;48.884;9.160;2022-07-17T02:51:32;14.30;99.90
3466;DHT22;1747;48.884;9.160;2022-07-17T02:53:59;14.30;99.90
3466;DHT22;1747;48.884;9.160;2022-07-17T02:56:26;14.30;99.90
3466;DHT22;1747;48.884;9.160;2022-07-17T02:58:53;14.40;99.90
3466;DHT22;1747;48.884;9.160;2022-07-17T03:01:20;14.40;99.90
3466;DHT22;1747;48.884;9.160;2022-07-17T03:03:47;14.40;99.90
3466;DHT22;1747;48.884;9.160;2022-07-17T03:06:15;14.40;99.90
3466;DHT22;1747;48.884;9.160;2022-07-17T03:08:42;14.30;99.90
3466;DHT22;1747;48.884;9.160;2022-07-17T03:11:08;14.20;99.90
3466;DHT22;1747;48.884;9.160;2022-07-17T03:13:35;14.20;99.90
3466;DHT22;1747;48.884;9.160;2022-07-17T03:16:02;14.10;99.90
3466;DHT22;1747;48.884;9.160;2022-07-17T03:18:30;14.00;99.90
3466;DHT22;1747;48.884;9.160;2022-07-17T03:20:57;13.90;99.90
3466;DHT22;1747;48.884;9.160;2022-07-17T03:23:25;13.90;99.90
3466;DHT22;1747;48.884;9.160;2022-07-17T03:25:52;13.90;99.90
3466;DHT22;1747;48.884;9.160;2022-07-17T03:28:18;13.70;99.90
3466;DHT22;1747;48.884;9.160;2022-07-17T03:30:45;13.70;99.90
3466;DHT22;1747;48.884;9.160;2022-07-17T03:33:12;13.60;99.90
3466;DHT22;1747;48.884;9.160;2022-07-17T03:35:39;13.60;99.90
3466;DHT22;1747;48.884;9.160;2022-07-17T03:38:06;13.70;99.90
3466;DHT22;1747;48.884;9.160;2022-07-17T03:40:34;13.70;99.90
3466;DHT22;1747;48.884;9.160;2022-07-17T03:43:01;13.70;99.90
3466;DHT22;1747;48.884;9.160;2022-07-17T03:45:28;13.60;99.90
3466;DHT22;1747;48.884;9.160;2022-07-17T03:47:54;13.60;99.90
3466;DHT22;1747;48.884;9.160;2022-07-17T03:50:21;13.70;99.90
3466;DHT22;1747;48.884;9.160;2022-07-17T03:52:48;13.70;99.90
3466;DHT22;1747;48.884;9.160;2022-07-17T03:55:16;13.70;99.90
3466;DHT22;1747;48.884;9.160;2022-07-17T03:57:44;13.60;99.90
3466;DHT22;1747;48.884;9.160;2022-07-17T04:00:11;13.60;99.90
3466;DHT22;1747;48.884;9.160;2022-07-17T04:02:38;13.50;99.90
3466;DHT22;1747;48.884;9.160;2022-07-17T04:05:06;13.50;99.90
3466;DHT22;1747;48.884;9.160;2022-07-17T04:07:35;13.40;99.90
3466;DHT22;1747;48.884;9.160;2022-07-17T04:10:04;13.40;99.90
3466;DHT22;1747;48.884;9.160;2022-07-17T04:12:31;13.40;99.90
3466;DHT22;1747;48.884;9.160;2022-07-17T04:14:59;13.30;99.90
3466;DHT22;1747;48.884;9.160;2022-07-17T04:17:26;13.30;99.90
3466;DHT22;1747;48.884;9.160;2022-07-17T04:19:53;13.30;99.90
3466;DHT22;1747;48.884;9.160;2022-07-17T04:22:21;13.40;99.90
3466;DHT22;1747;48.884;9.160;2022-07-17T04:24:48;13.50;99.90
3466;DHT22;1747;48.884;9.160;2022-07-17T04:27:15;13.50;99.90
3466;DHT22;1747;48.884;9.160;2022-07-17T04:29:41;13.50;99.90
3466;DHT22;1747;48.884;9.160;2022-07-17T04:32:10;13.50;99.90
3466;DHT22;1747;48.884;9.160;2022-07-17T04:34:37;13.50;99.90
3466;DHT22;1747;48.884;9.160;2022-07-17T04:37:04;13.50;99.90
3466;DHT22;1747;48.884;9.160;2022-07-17T04:39:31;13.70;99.90
3466;DHT22;1747;48.884;9.160;2022-07-17T04:41:58;13.80;99.90
3466;DHT22;1747;48.884;9.160;2022-07-17T04:44:25;13.80;99.90
3466;DHT22;1747;48.884;9.160;2022-07-17T04:46:51;13.90;99.90
3466;DHT22;1747;48.884;9.160;2022-07-17T04:49:22;13.90;99.90
3466;DHT22;1747;48.884;9.160;2022-07-17T04:51:49;13.90;99.90
3466;DHT22;1747;48.884;9.160;2022-07-17T04:54:15;13.90;99.90
3466;DHT22;1747;48.884;9.160;2022-07-17T04:56:42;14.00;99.90
3466;DHT22;1747;48.884;9.160;2022-07-17T04:59:09;14.10;99.90
3466;DHT22;1747;48.884;9.160;2022-07-17T05:01:36;14.20;99.90
3466;DHT22;1747;48.884;9.160;2022-07-17T05:04:03;14.30;99.90
3466;DHT22;1747;48.884;9.160;2022-07-17T05:06:31;14.50;99.90
3466;DHT22;1747;48.884;9.160;2022-07-17T05:08:58;14.70;99.90
3466;DHT22;1747;48.884;9.160;2022-07-17T05:11:25;14.80;99.90
3466;DHT22;1747;48.884;9.160;2022-07-17T05:13:52;14.90;99.90
3466;DHT22;1747;48.884;9.160;2022-07-17T05:16:20;15.00;99.90
3466;DHT22;1747;48.884;9.160;2022-07-17T05:18:47;15.20;99.90
3466;DHT22;1747;48.884;9.160;2022-07-17T05:21:14;15.30;99.90
3466;DHT22;1747;48.884;9.160;2022-07-17T05:23:42;15.50;99.90
3466;DHT22;1747;48.884;9.160;2022-07-17T05:26:09;15.60;99.90
3466;DHT22;1747;48.884;9.160;2022-07-17T05:28:36;15.70;99.90
3466;DHT22;1747;48.884;9.160;2022-07-17T05:31:05;15.80;99.90
3466;DHT22;1747;48.884;9.160;2022-07-17T05:33:32;15.90;99.90
3466;DHT22;1747;48.884;9.160;2022-07-17T05:36:00;16.00;99.90
3466;DHT22;1747;48.884;9.160;2022-07-17T05:38:27;16.10;99.90
3466;DHT22;1747;48.884;9.160;2022-07-17T05:40:58;16.20;99.90
3466;DHT22;1747;48.884;9.160;2022-07-17T05:43:25;16.30;99.90
3466;DHT22;1747;48.884;9.160;2022-07-17T05:45:53;16.40;99.90
3466;DHT22;1747;48.884;9.160;2022-07-17T05:48:20;16.50;99.90
3466;DHT22;1747;48.884;9.160;2022-07-17T05:50:47;16.60;99.90
3466;DHT22;1747;48.884;9.160;2022-07-17T05:53:14;16.70;99.90
3466;DHT22;1747;48.884;9.160;2022-07-17T05:55:41;16.80;99.90
3466;DHT22;1747;48.884;9.160;2022-07-17T05:58:09;16.80;99.90
3466;DHT22;1747;48.884;9.160;2022-07-17T06:00:37;17.00;99.90
3466;DHT22;1747;48.884;9.160;2022-07-17T06:03:03;17.10;99.90
3466;DHT22;1747;48.884;9.160;2022-07-17T06:05:30;17.10;99.90
3466;DHT22;1747;48.884;9.160;2022-07-17T06:07:58;17.20;99.90
3466;DHT22;1747;48.884;9.160;2022-07-17T06:10:25;17.30;99.90
3466;DHT22;1747;48.884;9.160;2022-07-17T06:12:52;17.40;99.90
3466;DHT22;1747;48.884;9.160;2022-07-17T06:15:21;17.50;99.90
3466;DHT22;1747;48.884;9.160;2022-07-17T06:17:48;17.60;99.90
3466;DHT22;1747;48.884;9.160;2022-07-17T06:20:16;17.70;99.90
3466;DHT22;1747;48.884;9.160;2022-07-17T06:22:44;17.80;99.90
3466;DHT22;1747;48.884;9.160;2022-07-17T06:25:11;17.80;99.90
3466;DHT22;1747;48.884;9.160;2022-07-17T06:27:39;18.00;99.90
3466;DHT22;1747;48.884;9.160;2022-07-17T06:30:07;18.10;99.90
3466;DHT22;1747;48.884;9.160;2022-07-17T06:32:35;18.20;99.90
3466;DHT22;1747;48.884;9.160;2022-07-17T06:35:02;18.30;99.70
3466;DHT22;1747;48.884;9.160;2022-07-17T06:37:29;18.40;99.90
3466;DHT22;1747;48.884;9.160;2022-07-17T06:39:56;18.40;99.90
3466;DHT22;1747;48.884;9.160;2022-07-17T06:42:23;18.60;99.30
3466;DHT22;1747;48.884;9.160;2022-07-17T06:44:50;18.70;98.70
3466;DHT22;1747;48.884;9.160;2022-07-17T06:47:17;18.80;99.00
3466;DHT22;1747;48.884;9.160;2022-07-17T06:49:45;19.00;98.70
3466;DHT22;1747;48.884;9.160;2022-07-17T06:52:12;19.10;98.60
3466;DHT22;1747;48.884;9.160;2022-07-17T06:54:38;19.20;98.40
3466;DHT22;1747;48.884;9.160;2022-07-17T06:57:05;19.20;98.30
3466;DHT22;1747;48.884;9.160;2022-07-17T06:59:33;19.40;98.10
3466;DHT22;1747;48.884;9.160;2022-07-17T07:02:00;19.50;98.00
3466;DHT22;1747;48.884;9.160;2022-07-17T07:04:27;19.60;97.40
3466;DHT22;1747;48.884;9.160;2022-07-17T07:06:55;19.80;97.10
3466;DHT22;1747;48.884;9.160;2022-07-17T07:09:22;19.90;96.60
3466;DHT22;1747;48.884;9.160;2022-07-17T07:11:48;20.00;96.30
3466;DHT22;1747;48.884;9.160;2022-07-17T07:14:15;20.10;96.00
3466;DHT22;1747;48.884;9.160;2022-07-17T07:16:42;20.20;95.40
3466;DHT22;1747;48.884;9.160;2022-07-17T07:19:09;20.20;95.40
3466;DHT22;1747;48.884;9.160;2022-07-17T07:21:36;20.30;95.30
3466;DHT22;1747;48.884;9.160;2022-07-17T07:24:05;20.40;95.00
3466;DHT22;1747;48.884;9.160;2022-07-17T07:26:31;20.50;94.20
3466;DHT22;1747;48.884;9.160;2022-07-17T07:28:58;20.60;94.00
3466;DHT22;1747;48.884;9.160;2022-07-17T07:31:25;20.70;93.50
3466;DHT22;1747;48.884;9.160;2022-07-17T07:33:52;20.80;93.20
3466;DHT22;1747;48.884;9.160;2022-07-17T07:36:19;20.90;92.70
3466;DHT22;1747;48.884;9.160;2022-07-17T07:38:46;21.00;92.70
3466;DHT22;1747;48.884;9.160;2022-07-17T07:41:14;21.10;93.20
3466;DHT22;1747;48.884;9.160;2022-07-17T07:43:41;21.30;92.90
3466;DHT22;1747;48.884;9.160;2022-07-17T07:46:08;21.30;92.70
3466;DHT22;1747;48.884;9.160;2022-07-17T07:48:35;21.40;92.50
3466;DHT22;1747;48.884;9.160;2022-07-17T07:51:01;21.50;92.50
3466;DHT22;1747;48.884;9.160;2022-07-17T07:53:28;21.60;92.30
3466;DHT22;1747;48.884;9.160;2022-07-17T07:55:55;21.70;92.20
3466;DHT22;1747;48.884;9.160;2022-07-17T07:58:23;21.70;92.10
3466;DHT22;1747;48.884;9.160;2022-07-17T08:00:50;21.90;92.00
3466;DHT22;1747;48.884;9.160;2022-07-17T08:03:17;22.00;92.10
3466;DHT22;1747;48.884;9.160;2022-07-17T08:05:44;22.10;91.70
3466;DHT22;1747;48.884;9.160;2022-07-17T08:08:11;22.20;91.10
3466;DHT22;1747;48.884;9.160;2022-07-17T08:10:38;22.30;90.70
3466;DHT22;1747;48.884;9.160;2022-07-17T08:13:04;22.40;90.50
3466;DHT22;1747;48.884;9.160;2022-07-17T08:15:33;22.50;90.00
3466;DHT22;1747;48.884;9.160;2022-07-17T08:17:59;22.50;88.70
3466;DHT22;1747;48.884;9.160;2022-07-17T08:20:26;22.60;88.60
3466;DHT22;1747;48.884;9.160;2022-07-17T08:22:53;22.60;87.50
3466;DHT22;1747;48.884;9.160;2022-07-17T08:25:21;22.70;88.50
3466;DHT22;1747;48.884;9.160;2022-07-17T08:27:48;22.80;87.30
3466;DHT22;1747;48.884;9.160;2022-07-17T08:30:15;22.90;88.30
3466;DHT22;1747;48.884;9.160;2022-07-17T08:32:43;23.00;87.00
3466;DHT22;1747;48.884;9.160;2022-07-17T08:35:10;23.20;86.90
3466;DHT22;1747;48.884;9.160;2022-07-17T08:37:45;23.20;85.80
3466;DHT22;1747;48.884;9.160;2022-07-17T08:40:16;23.30;85.20
3466;DHT22;1747;48.884;9.160;2022-07-17T08:42:43;23.40;83.90
3466;DHT22;1747;48.884;9.160;2022-07-17T08:45:10;23.50;82.30
3466;DHT22;1747;48.884;9.160;2022-07-17T08:47:38;23.60;82.30
3466;DHT22;1747;48.884;9.160;2022-07-17T08:50:07;23.70;81.50
3466;DHT22;1747;48.884;9.160;2022-07-17T08:52:36;23.70;81.00
3466;DHT22;1747;48.884;9.160;2022-07-17T08:55:07;23.80;82.80
3466;DHT22;1747;48.884;9.160;2022-07-17T08:57:37;24.00;81.80
3466;DHT22;1747;48.884;9.160;2022-07-17T09:00:05;24.10;79.90
3466;DHT22;1747;48.884;9.160;2022-07-17T09:02:32;24.20;79.90
3466;DHT22;1747;48.884;9.160;2022-07-17T09:05:00;24.30;79.40
3466;DHT22;1747;48.884;9.160;2022-07-17T09:07:28;24.40;79.00
3466;DHT22;1747;48.884;9.160;2022-07-17T09:09:56;24.50;78.10
3466;DHT22;1747;48.884;9.160;2022-07-17T09:12:26;24.60;76.20
3466;DHT22;1747;48.884;9.160;2022-07-17T09:15:16;24.70;77.40
3466;DHT22;1747;48.884;9.160;2022-07-17T09:18:01;24.80;78.00
3466;DHT22;1747;48.884;9.160;2022-07-17T09:20:32;25.00;76.60
3466;DHT22;1747;48.884;9.160;2022-07-17T09:23:03;25.10;74.90
3466;DHT22;1747;48.884;9.160;2022-07-17T09:25:36;25.20;72.50
3466;DHT22;1747;48.884;9.160;2022-07-17T09:28:05;25.30;72.30
3466;DHT22;1747;48.884;9.160;2022-07-17T09:30:32;25.40;70.90
3466;DHT22;1747;48.884;9.160;2022-07-17T09:33:00;25.40;71.90
3466;DHT22;1747;48.884;9.160;2022-07-17T09:35:27;25.50;70.30
3466;DHT22;1747;48.884;9.160;2022-07-17T09:37:55;25.50;71.70
3466;DHT22;1747;48.884;9.160;2022-07-17T09:40:23;25.60;71.10
3466;DHT22;1747;48.884;9.160;2022-07-17T09:43:08;25.70;71.40
3466;DHT22;1747;48.884;9.160;2022-07-17T09:45:35;25.80;71.60
3466;DHT22;1747;48.884;9.160;2022-07-17T09:48:03;25.90;68.70
3466;DHT22;1747;48.884;9.160;2022-07-17T09:50:32;26.00;67.30
3466;DHT22;1747;48.884;9.160;2022-07-17T09:53:00;26.00;67.10
3466;DHT22;1747;48.884;9.160;2022-07-17T09:55:30;26.00;68.90
3466;DHT22;1747;48.884;9.160;2022-07-17T09:58:25;26.00;66.70
3466;DHT22;1747;48.884;9.160;2022-07-17T10:01:06;26.10;65.80
3466;DHT22;1747;48.884;9.160;2022-07-17T10:03:33;26.20;65.50
3466;DHT22;1747;48.884;9.160;2022-07-17T10:06:01;26.20;65.70
3466;DHT22;1747;48.884;9.160;2022-07-17T10:08:29;26.40;67.40
3466;DHT22;1747;48.884;9.160;2022-07-17T10:10:59;26.50;67.10
3466;DHT22;1747;48.884;9.160;2022-07-17T10:13:26;26.60;66.20
3466;DHT22;1747;48.884;9.160;2022-07-17T10:15:54;26.60;65.30
3466;DHT22;1747;48.884;9.160;2022-07-17T10:18:21;26.70;64.30
3466;DHT22;1747;48.884;9.160;2022-07-17T10:20:48;26.70;62.50
3466;DHT22;1747;48.884;9.160;2022-07-17T10:23:15;26.80;64.40
3466;DHT22;1747;48.884;9.160;2022-07-17T10:25:42;26.90;64.20
3466;DHT22;1747;48.884;9.160;2022-07-17T10:28:10;26.90;63.80
3466;DHT22;1747;48.884;9.160;2022-07-17T10:30:41;27.00;63.10
3466;DHT22;1747;48.884;9.160;2022-07-17T10:33:08;27.00;64.00
3466;DHT22;1747;48.884;9.160;2022-07-17T10:35:44;27.00;63.10
3466;DHT22;1747;48.884;9.160;2022-07-17T10:38:13;27.10;61.80
3466;DHT22;1747;48.884;9.160;2022-07-17T10:40:41;27.00;61.60
3466;DHT22;1747;48.884;9.160;2022-07-17T10:43:09;27.00;64.00
3466;DHT22;1747;48.884;9.160;2022-07-17T10:45:37;27.10;62.90
3466;DHT22;1747;48.884;9.160;2022-07-17T10:48:06;27.20;61.30
3466;DHT22;1747;48.884;9.160;2022-07-17T10:50:35;27.30;57.60
3466;DHT22;1747;48.884;9.160;2022-07-17T10:53:05;27.40;59.80
3466;DHT22;1747;48.884;9.160;2022-07-17T10:55:33;27.50;59.10
3466;DHT22;1747;48.884;9.160;2022-07-17T10:58:02;27.50;60.90
3466;DHT22;1747;48.884;9.160;2022-07-17T11:00:31;27.60;58.30
3466;DHT22;1747;48.884;9.160;2022-07-17T11:03:08;27.60;58.90
3466;DHT22;1747;48.884;9.160;2022-07-17T11:05:35;27.60;58.20
3466;DHT22;1747;48.884;9.160;2022-07-17T11:08:02;27.70;58.60
3466;DHT22;1747;48.884;9.160;2022-07-17T11:10:36;27.90;58.30
3466;DHT22;1747;48.884;9.160;2022-07-17T11:13:10;28.00;57.90
3466;DHT22;1747;48.884;9.160;2022-07-17T11:15:40;28.00;58.60
3466;DHT22;1747;48.884;9.160;2022-07-17T11:18:11;28.00;58.40
3466;DHT22;1747;48.884;9.160;2022-07-17T11:20:47;28.00;58.10
3466;DHT22;1747;48.884;9.160;2022-07-17T11:23:15;28.10;56.30
3466;DHT22;1747;48.884;9.160;2022-07-17T11:25:52;28.10;55.20
3466;DHT22;1747;48.884;9.160;2022-07-17T11:28:28;28.10;58.00
3466;DHT22;1747;48.884;9.160;2022-07-17T11:30:56;28.20;57.80
3466;DHT22;1747;48.884;9.160;2022-07-17T11:33:23;28.40;57.30
3466;DHT22;1747;48.884;9.160;2022-07-17T11:35:50;28.40;53.60
3466;DHT22;1747;48.884;9.160;2022-07-17T11:38:24;28.40;55.30
3466;DHT22;1747;48.884;9.160;2022-07-17T11:40:51;28.50;57.00
3466;DHT22;1747;48.884;9.160;2022-07-17T11:43:18;28.50;56.30
3466;DHT22;1747;48.884;9.160;2022-07-17T11:45:45;28.60;55.90
3466;DHT22;1747;48.884;9.160;2022-07-17T11:48:14;28.80;57.50
3466;DHT22;1747;48.884;9.160;2022-07-17T11:50:51;29.00;55.40
3466;DHT22;1747;48.884;9.160;2022-07-17T11:53:18;29.20;55.70
3466;DHT22;1747;48.884;9.160;2022-07-17T11:55:45;29.50;55.00
3466;DHT22;1747;48.884;9.160;2022-07-17T11:58:12;29.80;56.00
3466;DHT22;1747;48.884;9.160;2022-07-17T12:00:39;30.00;55.00
3466;DHT22;1747;48.884;9.160;2022-07-17T12:03:06;30.50;56.10
3466;DHT22;1747;48.884;9.160;2022-07-17T12:05:35;31.00;53.60
3466;DHT22;1747;48.884;9.160;2022-07-17T12:08:02;31.60;51.30
3466;DHT22;1747;48.884;9.160;2022-07-17T12:10:30;32.10;51.00
3466;DHT22;1747;48.884;9.160;2022-07-17T12:12:59;32.60;48.40
3466;DHT22;1747;48.884;9.160;2022-07-17T12:15:36;32.90;49.40
3466;DHT22;1747;48.884;9.160;2022-07-17T12:18:04;33.50;49.10
3466;DHT22;1747;48.884;9.160;2022-07-17T12:20:44;33.80;49.60
3466;DHT22;1747;48.884;9.160;2022-07-17T12:23:26;34.20;50.10
3466;DHT22;1747;48.884;9.160;2022-07-17T12:26:03;34.60;47.20
3466;DHT22;1747;48.884;9.160;2022-07-17T12:28:30;35.10;45.50
3466;DHT22;1747;48.884;9.160;2022-07-17T12:30:57;35.30;44.00
3466;DHT22;1747;48.884;9.160;2022-07-17T12:33:24;35.40;44.00
3466;DHT22;1747;48.884;9.160;2022-07-17T12:35:53;35.60;43.70
3466;DHT22;1747;48.884;9.160;2022-07-17T12:38:20;36.00;42.90
3466;DHT22;1747;48.884;9.160;2022-07-17T12:40:47;36.40;44.30
3466;DHT22;1747;48.884;9.160;2022-07-17T12:43:14;36.70;43.10
3466;DHT22;1747;48.884;9.160;2022-07-17T12:45:41;36.40;43.80
3466;DHT22;1747;48.884;9.160;2022-07-17T12:48:08;36.80;41.50
3466;DHT22;1747;48.884;9.160;2022-07-17T12:50:35;37.00;42.30
3466;DHT22;1747;48.884;9.160;2022-07-17T12:53:03;37.30;41.30
3466;DHT22;1747;48.884;9.160;2022-07-17T12:55:31;37.40;40.90
3466;DHT22;1747;48.884;9.160;2022-07-17T12:57:58;37.80;40.40
3466;DHT22;1747;48.884;9.160;2022-07-17T13:00:25;37.90;41.60
3466;DHT22;1747;48.884;9.160;2022-07-17T13:02:52;37.80;40.50
3466;DHT22;1747;48.884;9.160;2022-07-17T13:05:19;38.10;41.90
3466;DHT22;1747;48.884;9.160;2022-07-17T13:07:46;38.60;40.40
3466;DHT22;1747;48.884;9.160;2022-07-17T13:10:14;38.60;39.70
3466;DHT22;1747;48.884;9.160;2022-07-17T13:12:42;38.80;39.70
3466;DHT22;1747;48.884;9.160;2022-07-17T13:15:10;39.10;39.90
3466;DHT22;1747;48.884;9.160;2022-07-17T13:17:37;39.30;40.20
3466;DHT22;1747;48.884;9.160;2022-07-17T13:20:04;39.50;40.10
3466;DHT22;1747;48.884;9.160;2022-07-17T13:22:32;39.60;39.00
3466;DHT22;1747;48.884;9.160;2022-07-17T13:24:59;39.70;38.50
3466;DHT22;1747;48.884;9.160;2022-07-17T13:27:27;39.60;39.00
3466;DHT22;1747;48.884;9.160;2022-07-17T13:29:54;39.60;38.30
3466;DHT22;1747;48.884;9.160;2022-07-17T13:32:21;39.50;38.10
3466;DHT22;1747;48.884;9.160;2022-07-17T13:34:48;39.30;37.40
3466;DHT22;1747;48.884;9.160;2022-07-17T13:37:15;39.50;38.10
3466;DHT22;1747;48.884;9.160;2022-07-17T13:39:41;39.40;38.30
3466;DHT22;1747;48.884;9.160;2022-07-17T13:42:09;39.40;38.20
3466;DHT22;1747;48.884;9.160;2022-07-17T13:44:37;39.60;37.90
3466;DHT22;1747;48.884;9.160;2022-07-17T13:47:04;39.40;37.50
3466;DHT22;1747;48.884;9.160;2022-07-17T13:49:31;39.30;37.70
3466;DHT22;1747;48.884;9.160;2022-07-17T13:51:57;39.20;38.10
3466;DHT22;1747;48.884;9.160;2022-07-17T13:54:24;39.20;36.80
3466;DHT22;1747;48.884;9.160;2022-07-17T13:56:51;39.40;37.80
3466;DHT22;1747;48.884;9.160;2022-07-17T13:59:18;39.40;38.30
3466;DHT22;1747;48.884;9.160;2022-07-17T14:01:46;39.70;37.10
3466;DHT22;1747;48.884;9.160;2022-07-17T14:04:13;39.80;38.10
3466;DHT22;1747;48.884;9.160;2022-07-17T14:06:40;40.20;37.30
3466;DHT22;1747;48.884;9.160;2022-07-17T14:09:07;40.40;38.00
3466;DHT22;1747;48.884;9.160;2022-07-17T14:11:35;40.80;37.60
3466;DHT22;1747;48.884;9.160;2022-07-17T14:14:02;41.10;36.30
3466;DHT22;1747;48.884;9.160;2022-07-17T14:16:30;41.20;36.50
3466;DHT22;1747;48.884;9.160;2022-07-17T14:18:58;41.60;35.80
3466;DHT22;1747;48.884;9.160;2022-07-17T14:21:25;41.60;35.40
3466;DHT22;1747;48.884;9.160;2022-07-17T14:23:52;41.60;36.30
3466;DHT22;1747;48.884;9.160;2022-07-17T14:26:19;41.80;36.00
3466;DHT22;1747;48.884;9.160;2022-07-17T14:28:46;41.80;36.30
3466;DHT22;1747;48.884;9.160;2022-07-17T14:31:13;41.90;34.90
3466;DHT22;1747;48.884;9.160;2022-07-17T14:33:40;42.00;35.30
3466;DHT22;1747;48.884;9.160;2022-07-17T14:36:08;41.80;35.00
3466;DHT22;1747;48.884;9.160;2022-07-17T14:38:35;41.60;35.20
3466;DHT22;1747;48.884;9.160;2022-07-17T14:41:02;41.40;35.70
3466;DHT22;1747;48.884;9.160;2022-07-17T14:43:29;41.50;35.70
3466;DHT22;1747;48.884;9.160;2022-07-17T14:45:56;41.70;34.80
3466;DHT22;1747;48.884;9.160;2022-07-17T14:48:23;42.10;36.00
3466;DHT22;1747;48.884;9.160;2022-07-17T14:50:50;42.40;35.00
3466;DHT22;1747;48.884;9.160;2022-07-17T14:53:19;42.40;34.00
3466;DHT22;1747;48.884;9.160;2022-07-17T14:55:45;42.20;34.50
3466;DHT22;1747;48.884;9.160;2022-07-17T14:58:12;42.60;36.50
3466;DHT22;1747;48.884;9.160;2022-07-17T15:00:39;43.10;35.30
3466;DHT22;1747;48.884;9.160;2022-07-17T15:03:06;43.10;34.10
3466;DHT22;1747;48.884;9.160;2022-07-17T15:05:34;43.30;33.80
3466;DHT22;1747;48.884;9.160;2022-07-17T15:08:01;42.80;33.40
3466;DHT22;1747;48.884;9.160;2022-07-17T15:10:30;42.70;34.40
3466;DHT22;1747;48.884;9.160;2022-07-17T15:12:58;42.90;35.00
3466;DHT22;1747;48.884;9.160;2022-07-17T15:15:26;42.90;34.70
3466;DHT22;1747;48.884;9.160;2022-07-17T15:17:52;43.10;33.60
3466;DHT22;1747;48.884;9.160;2022-07-17T15:20:19;43.10;33.20
3466;DHT22;1747;48.884;9.160;2022-07-17T15:22:46;43.10;33.20
3466;DHT22;1747;48.884;9.160;2022-07-17T15:25:13;43.30;33.70
3466;DHT22;1747;48.884;9.160;2022-07-17T15:27:41;43.70;35.40
3466;DHT22;1747;48.884;9.160;2022-07-17T15:30:09;43.60;34.90
3466;DHT22;1747;48.884;9.160;2022-07-17T15:32:36;43.40;33.00
3466;DHT22;1747;48.884;9.160;2022-07-17T15:35:04;43.30;34.10
3466;DHT22;1747;48.884;9.160;2022-07-17T15:37:31;43.00;33.10
3466;DHT22;1747;48.884;9.160;2022-07-17T15:39:58;42.80;35.10
3466;DHT22;1747;48.884;9.160;2022-07-17T15:42:26;42.60;33.80
3466;DHT22;1747;48.884;9.160;2022-07-17T15:44:55;42.10;33.30
3466;DHT22;1747;48.884;9.160;2022-07-17T15:47:22;41.70;38.90
3466;DHT22;1747;48.884;9.160;2022-07-17T15:49:49;41.50;36.40
3466;DHT22;1747;48.884;9.160;2022-07-17T15:52:17;41.00;34.60
3466;DHT22;1747;48.884;9.160;2022-07-17T15:54:44;40.60;34.60
3466;DHT22;1747;48.884;9.160;2022-07-17T15:57:11;40.30;35.40
3466;DHT22;1747;48.884;9.160;2022-07-17T15:59:38;40.10;35.70
3466;DHT22;1747;48.884;9.160;2022-07-17T16:02:07;39.60;35.00
3466;DHT22;1747;48.884;9.160;2022-07-17T16:04:34;39.20;35.60
3466;DHT22;1747;48.884;9.160;2022-07-17T16:07:00;38.80;35.50